Wittensville, KY (41274)

9:22 AM EDT on July 29, 2014 (GMT -0400)
Paintsville, KY (KKYPAINT2) Elev 620 ft | 37.82 °N, 82.82 °W | Change Station

Current weather conditions updated 3 seconds ago

Overcast
Overcast
60.7 °F
Feels Like 60.7 °F
N
2.0
Wind Variable Wind from WSW
Gusts 5.0 mph

Today is forecast to be nearly the same temperature as yesterday.

Today
High -- | Low -- °F
--% Chance of Precip.
Yesterday
High -- | Low -- °F
Precip. -- in
6:32 AM 8:42 PM
Waxing Crescent, 6% visible
Pressure 30.04 in
Visibility 10.0 miles
Clouds Overcast 1000 ft
Dew Point 57 °F
Humidity 87%
Rainfall 0.00 in
Snow Depth Not available.
UV 1.1 out of 12
Pollen 4.00 out of 12
Air Quality Not available.
Flu Activity Not available.
METAR KSJS 291315Z AUTO 00000KT 10SM OVC010 15/13 A3004 RMK AO2 T01500134

More Conditions Fewer Conditions

Pressure 30.04 in
Visibility 10.0 miles
Clouds Overcast 1000 ft
Dew Point 57 °F
Humidity 87%
Rainfall 0.00 in
Snow Depth Not available.
UV 1.1 out of 12
Pollen 4.00 out of 12
Air Quality Not available.
Flu Activity Not available.
METAR KSJS 291315Z AUTO 00000KT 10SM OVC010 15/13 A3004 RMK AO2 T01500134

More Conditions Fewer Conditions

10-Day Weather Forecast

Almanac

Astronomy

Jul. 29, 2014 Rise Set
Actual Time 6:32 AM EDT 8:42 PM EDT
Civil Twilight 6:02 AM EDT 9:12 PM EDT
Nautical Twilight 5:26 AM EDT 9:48 PM EDT
Astronomical Twilight 4:47 AM EDT 10:27 PM EDT
Moon 9:03 AM EDT 9:58 PM EDT
Length of Visible Light 15h 09m
Length of Day
14h 10m
Tomorrow will be 1m 46s shorter.
Waxing Crescent, 6% of the Moon is Illuminated
Today
Waxing Crescent
Aug 3
First Quarter
Aug 10
Full
Aug 17
Last Quarter
Aug 25
New

Today's Extremes

State Highs State Lows

Community

WunderPhotos

Upload Photos

1,738,713 photos uploaded!

Nearby

Snow Depth

Station Depth Elevation
No new snow has been reported.

Earthquake Activity

City Distance Mag. Time & Date
No recent earthquake activity has been reported nearby.
Minimum magnitude displayed is 2.5.

Coastal Water Temperatures

Place Temperature
No Stations Reporting

Nearby Weather Stations

Station Location Temp. Dew Point Humidity Wind Precip. Elev Updated Type
Paintsville, KY, Paintsville, KY 60.7 °F 57 °F 87% WSW  at  2.0 mph 0.00 in / hr 620 ft 9:22 AM EDT Normal
West Van Lear, West Van Lear, KY 66.7 °F 56 °F 69% ESE  at  0.0 mph - / hr 610 ft 9:13 AM EDT Normal
Middle Creek Battlefield Area, Prestonsburg, KY 59.9 °F 54 °F 82% North  at  0.0 mph 0.00 in / hr 728 ft 9:21 AM EDT Normal
Middle Creek VFD Station 2, Prestonsburg, KY 61.2 °F 60 °F 96% North  at  0.0 mph - / hr 689 ft 9:19 AM EDT Normal

Show More Stations Show Fewer Stations